Littleton, NH

4:23 AM EST on March 05, 2015 (GMT -0500)
Slate Ledge Rd. | Change Station
CLOSE
Current Station
Personal Weather Station
Location: Littleton, NH
Elevation: 1362 ft
Nearby Weather Stations

Elev 1362 ft 44.30 °N, 71.84 °W | Updated 6 seconds ago

Mostly Cloudy
Mostly Cloudy
20.5 °F
Feels Like 8 °F
N
12.8
Wind Variable Wind from NW
Gusts 15.0 mph

Today
High -- | Low -- °F
--% Chance of Precip.
Yesterday
High -- | Low -- °F
Precip. -- in
6:17 AM 5:40 PM
Full, 100% visible
Pressure 29.88 in
Visibility 10.0 miles
Clouds Mostly Cloudy 7000 ft
Windchill 8 °F
Dew Point -4 °F
Humidity 34%
Rainfall in
Snow Depth Not available.
UV 0.0 out of 12
Pollen .40 out of 12
Air Quality Not available.
Flu Activity Not available.
METAR KHIE 050852Z AUTO 29013G18KT 10SM BKN070 M04/M15 A2984 RMK AO2 SLP118 T10441150 53012

More Conditions Fewer Conditions

Pressure 29.88 in
Visibility 10.0 miles
Clouds Mostly Cloudy 7000 ft
Windchill 8 °F
Dew Point -4 °F
Humidity 34%
Rainfall in
Snow Depth Not available.
UV 0.0 out of 12
Pollen .40 out of 12
Air Quality Not available.
Flu Activity Not available.
METAR KHIE 050852Z AUTO 29013G18KT 10SM BKN070 M04/M15 A2984 RMK AO2 SLP118 T10441150 53012

More Conditions Fewer Conditions

10-Day Weather Forecast

Almanac

Astronomy

Mar. 05, 2015 Rise Set
Actual Time
Civil Twilight
Nautical Twilight
Astronomical Twilight
Moon
Length of Visible Light
Length of Day
Tomorrow will be .
, % of the Moon is Illuminated

Today's Extremes

State Highs State Lows

Community

WunderPhotos

Upload Photos

1,802,704 photos uploaded!

WunderBlogs® & News

Nearby

Air Quality

  Air Quality AQ Index Pollutant
Not available.

Snow Depth

Station Depth Elevation

Earthquake Activity

City Distance Mag. Time & Date
Minimum magnitude displayed is 2.5.

Coastal Water Temperatures

Place Temperature

Nearby Weather Stations